Time;durP1;ratioP1;P1;durP2;ratioP2;P2;SDS_P1;SDS_P2;PMS_P1;PMS_P2;Temp;Humidity;BMP_temperature;BMP_pressure;BME280_temperature;BME280_humidity;BME280_pressure;Samples;Min_cycle;Max_cycle;Signal;HPM_P1;HPM_P2
2022/04/21 00:00:44;;;;;;;12.13;11.30;;;;;;;7.28;79.21;101866.56;4973074;28;20964;-48
2022/04/21 00:03:13;;;;;;;10.90;9.90;;;;;;;7.28;79.88;101870.06;4972862;28;20868;-45
2022/04/21 00:05:40;;;;;;;10.60;9.93;;;;;;;7.28;79.88;101866.56;4973544;28;20439;-45
2022/04/21 00:08:09;;;;;;;11.50;10.70;;;;;;;7.29;80.14;101862.94;4973152;28;21156;-46
2022/04/21 00:10:37;;;;;;;10.03;9.33;;;;;;;7.29;79.61;101868.25;4973001;28;20920;-47
2022/04/21 00:13:06;;;;;;;11.70;10.50;;;;;;;7.28;79.63;101866.56;4972633;28;20463;-47
2022/04/21 00:15:36;;;;;;;10.77;9.83;;;;;;;7.28;80.05;101861.28;4973284;28;20430;-46
2022/04/21 00:18:04;;;;;;;11.23;10.43;;;;;;;7.27;79.75;101867.53;4973153;28;20439;-45
2022/04/21 00:20:31;;;;;;;11.73;10.73;;;;;;;7.25;79.87;101859.75;4973171;28;20437;-46
2022/04/21 00:25:44;;;;;;;12.00;11.07;;;;;;;7.23;80.91;101859.88;4973132;28;20457;-46
2022/04/21 00:28:12;;;;;;;10.73;10.13;;;;;;;7.23;80.10;101861.69;4973156;28;20484;-45
2022/04/21 00:30:41;;;;;;;11.63;10.80;;;;;;;7.21;80.42;101850.41;4973176;28;20431;-46
2022/04/21 00:33:08;;;;;;;12.10;11.20;;;;;;;7.18;80.78;101853.34;4972545;28;20473;-47
2022/04/21 00:35:36;;;;;;;12.77;11.77;;;;;;;7.13;80.63;101843.19;4973062;28;20442;-49
2022/04/21 00:38:04;;;;;;;12.13;11.13;;;;;;;7.12;80.95;101849.47;4976184;28;20434;-46
2022/04/21 00:40:32;;;;;;;11.87;10.80;;;;;;;7.09;80.88;101844.47;4977239;28;20430;-47
2022/04/21 00:43:01;;;;;;;12.00;10.87;;;;;;;7.07;80.83;101850.91;4976717;28;20466;-49
2022/04/21 00:45:31;;;;;;;12.00;11.10;;;;;;;7.04;80.27;101854.69;4966580;28;20437;-50
2022/04/21 00:48:03;;;;;;;10.50;9.83;;;;;;;7.02;81.07;101847.84;4968718;28;20466;-53
2022/04/21 00:50:34;;;;;;;11.77;10.97;;;;;;;6.99;81.55;101856.13;4976891;28;20430;-53
2022/04/21 00:53:02;;;;;;;11.77;10.87;;;;;;;6.94;81.70;101851.22;4976626;28;20836;-46
2022/04/21 00:55:32;;;;;;;12.13;11.20;;;;;;;6.85;80.96;101854.75;4977293;28;20936;-51
2022/04/21 00:58:02;;;;;;;11.23;10.53;;;;;;;6.75;80.82;101858.44;4977074;28;20431;-51
2022/04/21 01:00:30;;;;;;;11.30;10.50;;;;;;;6.68;80.59;101856.38;4976975;28;20435;-50
2022/04/21 01:02:58;;;;;;;11.57;10.80;;;;;;;6.56;80.66;101856.66;4976750;28;20557;-46
2022/04/21 01:05:33;;;;;;;10.70;10.00;;;;;;;6.46;80.43;101853.19;4977232;28;20438;-47
2022/04/21 01:08:02;;;;;;;11.60;10.77;;;;;;;6.36;80.90;101857.69;4977151;28;21002;-49
2022/04/21 01:10:31;;;;;;;10.87;9.90;;;;;;;6.25;80.58;101842.78;4977191;28;20431;-53
2022/04/21 01:13:00;;;;;;;9.70;9.20;;;;;;;6.13;80.92;101846.56;4976800;28;20469;-45
2022/04/21 01:15:28;;;;;;;11.23;10.23;;;;;;;6.03;80.80;101851.84;4977185;28;20434;-52
2022/04/21 01:17:56;;;;;;;11.70;10.80;;;;;;;5.94;80.73;101839.44;4976653;28;20438;-49
2022/04/21 01:20:25;;;;;;;11.10;10.30;;;;;;;5.89;80.86;101846.16;4976883;28;20434;-49
2022/04/21 01:22:53;;;;;;;10.47;9.77;;;;;;;5.86;81.62;101836.69;4976307;28;20553;-48
2022/04/21 01:25:22;;;;;;;11.90;11.10;;;;;;;5.81;81.48;101841.53;4977004;28;20430;-51
2022/04/21 01:27:52;;;;;;;12.53;11.33;;;;;;;5.77;81.67;101850.72;4976977;28;20485;-52
2022/04/21 01:30:20;;;;;;;12.67;11.43;;;;;;;5.75;82.23;101836.78;4976915;28;20797;-47
2022/04/21 01:32:49;;;;;;;12.13;11.07;;;;;;;5.79;82.87;101835.53;4976505;28;20549;-47
2022/04/21 01:35:17;;;;;;;11.67;10.80;;;;;;;5.75;82.65;101839.44;4976978;28;20427;-46
2022/04/21 01:43:16;;;;;;;13.10;11.80;;;;;;;5.55;82.76;101829.81;4975465;28;20477;-44
2022/04/21 01:45:44;;;;;;;12.37;11.20;;;;;;;5.45;82.43;101832.44;4961107;28;20459;-46
2022/04/21 01:48:13;;;;;;;11.20;10.30;;;;;;;5.35;82.27;101830.72;4957344;28;20478;-48
2022/04/21 01:50:41;;;;;;;11.43;10.73;;;;;;;5.32;83.40;101833.66;4956123;29;20947;-45
2022/04/21 01:53:10;;;;;;;13.10;12.10;;;;;;;5.31;83.62;101826.72;4955815;28;20459;-46
2022/04/21 01:55:38;;;;;;;13.43;12.43;;;;;;;5.32;83.68;101823.06;4983309;23;20414;-48
2022/04/21 01:58:06;;;;;;;12.47;11.57;;;;;;;5.30;83.63;101815.28;4967638;28;20448;-48
2022/04/21 02:00:33;;;;;;;13.90;12.80;;;;;;;5.35;84.69;101825.44;4975420;28;20466;-47
2022/04/21 02:03:01;;;;;;;15.80;14.47;;;;;;;5.37;84.77;101803.19;4957970;28;20984;-45
2022/04/21 02:05:29;;;;;;;13.70;12.40;;;;;;;5.36;84.45;101813.91;4954481;29;20996;-45
2022/04/21 02:07:57;;;;;;;14.67;13.60;;;;;;;5.32;84.83;101808.03;4937075;29;20479;-50
2022/04/21 02:10:25;;;;;;;16.23;14.77;;;;;;;5.32;85.21;101807.19;4936842;29;20441;-47
2022/04/21 02:12:53;;;;;;;13.90;12.80;;;;;;;5.24;84.96;101807.91;4936428;29;20472;-50
2022/04/21 02:15:21;;;;;;;14.00;12.60;;;;;;;5.11;84.15;101806.50;4936608;29;21051;-46
2022/04/21 02:17:48;;;;;;;12.70;11.60;;;;;;;4.98;84.24;101790.88;4936772;29;20441;-50
2022/04/21 02:20:17;;;;;;;12.93;12.00;;;;;;;4.87;84.33;101789.16;4936532;29;20439;-49
2022/04/21 02:22:45;;;;;;;13.77;12.77;;;;;;;4.83;84.84;101787.75;4936306;29;20476;-47
2022/04/21 02:25:14;;;;;;;14.83;13.60;;;;;;;4.82;85.36;101787.88;4936745;29;20435;-47
2022/04/21 02:27:44;;;;;;;13.40;12.30;;;;;;;4.81;85.53;101791.47;4936639;29;20480;-47
2022/04/21 02:30:14;;;;;;;14.10;12.90;;;;;;;4.77;85.24;101792.75;4936355;29;20444;-49
2022/04/21 02:32:42;;;;;;;13.20;12.10;;;;;;;4.73;85.34;101788.69;4936111;29;20506;-44
2022/04/21 02:35:12;;;;;;;13.93;12.90;;;;;;;4.70;85.70;101795.06;4936701;29;20437;-45
2022/04/21 02:37:41;;;;;;;14.67;13.60;;;;;;;4.66;85.71;101791.00;4936551;29;20456;-53
2022/04/21 02:40:10;;;;;;;13.10;12.00;;;;;;;4.57;85.34;101791.00;4936231;29;20440;-47
2022/04/21 02:42:39;;;;;;;14.63;13.50;;;;;;;4.53;85.94;101793.06;4935879;29;20464;-46
2022/04/21 02:45:11;;;;;;;14.70;13.70;;;;;;;4.47;85.85;101799.72;4938403;29;20437;-47
2022/04/21 02:47:41;;;;;;;12.90;12.00;;;;;;;4.42;85.65;101795.78;4971639;28;20451;-48
2022/04/21 02:50:11;;;;;;;14.07;12.87;;;;;;;4.32;85.85;101793.09;4974716;28;20453;-45
2022/04/21 02:52:40;;;;;;;13.90;12.80;;;;;;;4.25;85.92;101796.38;4974101;28;20574;-47
2022/04/21 02:57:54;;;;;;;14.83;13.57;;;;;;;4.12;86.29;101786.00;4974497;28;20438;-47
2022/04/21 03:00:23;;;;;;;15.53;14.40;;;;;;;4.05;86.51;101787.50;4973580;28;20774;-46
2022/04/21 03:02:51;;;;;;;15.23;13.90;;;;;;;4.00;86.75;101780.94;4974096;28;20470;-50
2022/04/21 03:05:19;;;;;;;17.10;15.70;;;;;;;3.93;87.25;101780.63;4974310;28;20486;-49
2022/04/21 03:07:47;;;;;;;15.63;14.33;;;;;;;3.89;87.44;101782.66;4974273;28;20439;-48
2022/04/21 03:10:15;;;;;;;16.70;15.40;;;;;;;3.88;87.94;101780.97;4973905;28;20438;-46
2022/04/21 03:12:42;;;;;;;15.97;14.47;;;;;;;3.83;87.88;101785.81;4973894;28;20485;-45
2022/04/21 03:15:12;;;;;;;16.40;14.73;;;;;;;3.81;88.53;101782.47;4974327;28;20435;-46
2022/04/21 03:17:42;;;;;;;16.00;14.70;;;;;;;3.76;88.88;101782.00;4974235;28;20459;-46
2022/04/21 03:24:18;;;;;;;15.97;14.47;;;;;;;3.73;88.99;101776.97;4974308;28;20522;-48
2022/04/21 03:25:45;;;;;;;16.80;15.17;;;;;;;3.66;90.20;101778.47;4973947;28;20455;-48
2022/04/21 03:28:13;;;;;;;16.30;14.87;;;;;;;3.62;89.78;101778.84;4973917;28;20478;-51
2022/04/21 03:30:40;;;;;;;15.60;14.00;;;;;;;3.59;89.87;101771.19;4973672;28;20439;-45
2022/04/21 03:33:10;;;;;;;16.63;15.13;;;;;;;3.58;90.07;101770.38;4973297;28;20470;-47
2022/04/21 03:35:37;;;;;;;15.60;14.20;;;;;;;3.56;90.30;101767.00;4973691;28;20962;-46
2022/04/21 03:38:06;;;;;;;18.20;16.70;;;;;;;3.56;90.27;101766.16;4973968;28;20801;-46
2022/04/21 03:40:33;;;;;;;18.00;16.40;;;;;;;3.55;90.93;101769.78;4973775;28;20435;-49
2022/04/21 03:43:01;;;;;;;16.03;14.30;;;;;;;3.52;90.41;101776.16;4973219;28;20473;-46
2022/04/21 03:45:29;;;;;;;15.70;14.37;;;;;;;3.49;90.59;101770.28;4968088;28;20510;-48
2022/04/21 03:47:58;;;;;;;15.73;14.07;;;;;;;3.48;90.70;101773.88;4973317;28;20451;-48
2022/04/21 03:50:29;;;;;;;14.83;13.50;;;;;;;3.47;90.91;101773.03;4973426;28;20557;-45
2022/04/21 03:52:56;;;;;;;15.77;14.47;;;;;;;3.48;90.84;101777.34;4972601;28;20459;-48
2022/04/21 03:55:25;;;;;;;16.50;14.80;;;;;;;3.54;91.47;101768.09;4973554;28;20435;-45
2022/04/21 03:57:53;;;;;;;16.80;15.17;;;;;;;3.60;91.90;101768.44;4973450;28;20449;-48
2022/04/21 04:00:20;;;;;;;16.80;15.40;;;;;;;3.68;91.72;101773.06;4973440;28;20441;-47
2022/04/21 04:02:48;;;;;;;17.27;15.67;;;;;;;3.70;91.57;101769.31;4973085;28;20463;-52
2022/04/21 04:05:15;;;;;;;18.40;16.57;;;;;;;3.79;92.25;101762.47;4973524;28;20523;-48
2022/04/21 04:13:15;;;;;;;16.13;14.80;;;;;;;4.07;93.16;101768.88;4972738;28;20466;-48
2022/04/21 04:15:44;;;;;;;16.47;15.07;;;;;;;4.19;92.93;101765.22;4973275;28;20455;-48
2022/04/21 04:18:11;;;;;;;16.53;15.20;;;;;;;4.26;92.65;101763.72;4973272;28;20445;-50
2022/04/21 04:20:39;;;;;;;16.13;14.53;;;;;;;4.37;92.74;101761.00;4972982;28;20832;-49
2022/04/21 04:23:08;;;;;;;17.47;15.70;;;;;;;4.50;93.37;101752.84;4972645;28;20467;-44
2022/04/21 04:25:36;;;;;;;18.50;16.77;;;;;;;4.60;93.41;101759.84;4973296;28;20458;-45
2022/04/21 04:28:04;;;;;;;14.90;13.53;;;;;;;4.69;93.35;101760.88;4973223;28;20431;-47
2022/04/21 04:30:32;;;;;;;16.10;14.40;;;;;;;4.79;93.47;101754.63;4972780;28;20565;-45
2022/04/21 04:33:01;;;;;;;15.40;14.00;;;;;;;4.92;93.70;101757.03;4972540;28;20474;-47
2022/04/21 04:35:29;;;;;;;16.77;15.10;;;;;;;5.11;93.86;101750.97;4972975;28;20438;-47
2022/04/21 04:37:57;;;;;;;15.97;14.53;;;;;;;5.32;93.70;101752.50;4973010;28;20442;-51
2022/04/21 04:40:26;;;;;;;18.20;16.30;;;;;;;5.53;94.23;101745.28;4972907;28;20431;-47
2022/04/21 04:42:53;;;;;;;17.17;15.20;;;;;;;5.75;94.43;101749.44;4972493;28;21013;-45
2022/04/21 04:48:07;;;;;;;15.63;14.03;;;;;;;6.27;94.02;101752.59;4958282;28;20427;-49
2022/04/21 04:50:34;;;;;;;14.40;13.20;;;;;;;6.59;93.96;101753.88;4972720;28;20478;-46
2022/04/21 04:53:09;;;;;;;14.03;12.90;;;;;;;7.31;95.48;101754.84;4972484;28;20466;-48
2022/04/21 04:55:38;;;;;;;13.10;11.90;;;;;;;8.51;96.41;101754.13;4972744;28;20437;-50
2022/04/21 04:58:05;;;;;;;13.57;12.47;;;;;;;9.62;96.46;101751.09;4972980;28;20447;-47
2022/04/21 05:00:33;;;;;;;12.50;10.90;;;;;;;10.57;94.61;101753.00;4972738;28;20815;-50
2022/04/21 05:03:01;;;;;;;11.67;10.77;;;;;;;11.35;88.77;101746.59;4972361;28;20833;-45
2022/04/21 05:05:29;;;;;;;11.20;10.30;;;;;;;11.97;83.03;101755.34;4972886;28;20438;-45
2022/04/21 05:07:57;;;;;;;10.20;9.40;;;;;;;12.47;78.02;101741.28;4972866;28;20933;-50
2022/04/21 05:10:28;;;;;;;10.53;9.60;;;;;;;12.75;72.84;101742.25;4972513;28;20844;-47
2022/04/21 05:12:57;;;;;;;10.97;10.17;;;;;;;13.14;70.55;101744.63;4972224;28;20473;-44
2022/04/21 05:15:25;;;;;;;11.33;10.43;;;;;;;13.38;68.66;101738.06;4972533;28;20435;-46
2022/04/21 05:17:53;;;;;;;9.70;8.90;;;;;;;13.51;66.46;101746.25;4972854;28;20466;-48
2022/04/21 05:20:26;;;;;;;11.87;10.97;;;;;;;13.70;64.25;101747.47;4972463;28;20463;-51
2022/04/21 05:23:05;;;;;;;10.27;9.50;;;;;;;13.92;64.25;101742.91;4973115;28;20497;-49
2022/04/21 05:25:36;;;;;;;11.33;10.43;;;;;;;14.15;62.40;101744.34;4976134;28;21137;-49
2022/04/21 05:28:07;;;;;;;11.30;10.20;;;;;;;14.40;61.43;101752.75;4976294;28;21195;-51
2022/04/21 05:33:24;;;;;;;10.00;9.20;;;;;;;15.08;58.14;101748.38;5014950;28;20429;-48
2022/04/21 05:35:52;;;;;;;10.43;9.40;;;;;;;15.01;54.42;101747.50;5014953;28;20453;-43
2022/04/21 05:38:21;;;;;;;10.27;9.43;;;;;;;15.42;54.23;101742.84;5015171;28;20425;-44
2022/04/21 05:40:49;;;;;;;12.80;10.63;;;;;;;16.29;53.31;101748.91;5014920;28;20802;-48
2022/04/21 05:43:20;;;;;;;10.33;9.33;;;;;;;17.09;51.82;101743.06;5014731;28;20491;-49
2022/04/21 05:45:49;;;;;;;10.50;9.00;;;;;;;17.87;50.78;101745.50;5008405;28;20536;-50
2022/04/21 05:48:17;;;;;;;9.67;8.80;;;;;;;18.51;49.16;101742.44;5014832;28;20417;-47
2022/04/21 05:50:47;;;;;;;8.33;7.80;;;;;;;19.21;47.82;101739.03;5014404;28;20499;-49
2022/04/21 05:53:20;;;;;;;9.67;8.90;;;;;;;19.51;46.14;101738.22;5014318;28;20475;-49
2022/04/21 05:55:49;;;;;;;9.77;8.80;;;;;;;20.08;44.92;101739.38;5014598;28;20467;-49
2022/04/21 05:58:16;;;;;;;10.70;9.70;;;;;;;19.96;37.88;101735.84;5014699;28;20992;-45
2022/04/21 06:00:45;;;;;;;10.33;9.50;;;;;;;20.02;41.52;101735.72;5014349;28;20464;-50
2022/04/21 06:03:17;;;;;;;11.73;9.63;;;;;;;20.05;40.07;101740.66;5014073;28;20791;-51
2022/04/21 06:05:45;;;;;;;11.30;9.10;;;;;;;19.85;40.12;101741.03;5014546;28;20460;-50
2022/04/21 06:08:12;;;;;;;8.40;7.60;;;;;;;20.05;37.47;101729.84;5014362;28;20455;-49
2022/04/21 06:10:40;;;;;;;9.30;8.40;;;;;;;20.23;40.69;101737.03;5014099;28;20483;-49
2022/04/21 06:13:08;;;;;;;8.43;7.83;;;;;;;20.28;41.72;101727.16;5013987;28;20464;-49
2022/04/21 06:15:35;;;;;;;8.20;7.53;;;;;;;20.12;39.22;101724.31;5014329;28;20439;-47
2022/04/21 06:18:04;;;;;;;9.13;8.37;;;;;;;20.34;40.79;101728.09;5014382;28;20480;-49
2022/04/21 06:20:34;;;;;;;8.43;7.83;;;;;;;20.49;40.72;101735.75;5013923;28;20432;-46
2022/04/21 06:23:02;;;;;;;7.27;6.63;;;;;;;20.74;39.98;101736.28;5013354;28;20469;-45
2022/04/21 06:25:29;;;;;;;6.73;6.10;;;;;;;20.72;39.16;101730.28;5013913;28;20425;-49
2022/04/21 06:27:57;;;;;;;8.60;7.90;;;;;;;20.40;40.81;101722.56;5013884;28;20437;-47
2022/04/21 06:30:25;;;;;;;7.60;7.10;;;;;;;20.60;40.29;101727.59;5012495;28;20483;-51
2022/04/21 06:32:53;;;;;;;7.70;7.27;;;;;;;20.84;35.95;101729.19;5013160;28;21005;-47
2022/04/21 06:35:22;;;;;;;7.50;7.07;;;;;;;21.27;38.69;101728.69;5012777;28;20433;-45
2022/04/21 06:37:50;;;;;;;8.40;7.80;;;;;;;21.26;37.92;101720.81;5013972;28;20444;-47
2022/04/21 06:40:18;;;;;;;7.27;6.87;;;;;;;21.48;35.42;101721.72;5013552;28;20420;-45
2022/04/21 06:42:46;;;;;;;6.90;6.37;;;;;;;21.38;37.58;101721.56;5013219;28;20829;-46
2022/04/21 06:48:03;;;;;;;6.30;5.90;;;;;;;21.77;38.58;101730.66;5013158;28;20952;-50
2022/04/21 06:50:33;;;;;;;5.77;5.30;;;;;;;21.94;38.23;101726.88;5013131;28;21055;-47
2022/04/21 06:53:01;;;;;;;6.30;5.90;;;;;;;21.53;34.99;101728.06;5012678;28;20834;-50
2022/04/21 06:55:29;;;;;;;6.13;5.63;;;;;;;20.96;33.41;101732.69;5011950;28;20537;-49
2022/04/21 06:57:57;;;;;;;5.93;5.53;;;;;;;20.97;35.24;101731.59;5013443;28;20436;-45
2022/04/21 07:00:26;;;;;;;6.30;5.90;;;;;;;20.41;35.00;101731.50;5012586;28;20790;-48
2022/04/21 07:02:57;;;;;;;6.60;6.00;;;;;;;20.04;37.26;101740.94;5012685;28;20535;-47
2022/04/21 07:05:26;;;;;;;7.27;6.67;;;;;;;19.44;37.89;101729.41;5012992;28;20440;-48
2022/04/21 07:07:55;;;;;;;7.70;7.20;;;;;;;18.74;38.28;101731.75;5013121;28;20464;-49
2022/04/21 07:10:22;;;;;;;11.33;10.23;;;;;;;18.64;39.23;101734.16;5012379;28;20472;-44
2022/04/21 07:12:50;;;;;;;10.53;8.27;;;;;;;18.58;38.86;101743.16;5011895;28;20499;-45
2022/04/21 07:15:18;;;;;;;7.80;7.30;;;;;;;17.93;40.18;101739.22;5012393;28;20432;-49
2022/04/21 07:17:46;;;;;;;8.43;7.83;;;;;;;17.81;40.92;101741.81;5013085;28;20934;-48
2022/04/21 07:20:13;;;;;;;7.50;6.97;;;;;;;17.70;41.49;101745.22;5012786;28;20443;-50
2022/04/21 07:22:41;;;;;;;7.20;6.70;;;;;;;17.62;42.64;101737.41;5012669;28;20464;-48
2022/04/21 07:25:10;;;;;;;7.73;7.10;;;;;;;17.42;43.04;101748.28;5013073;28;20832;-48
2022/04/21 07:27:38;;;;;;;9.43;7.80;;;;;;;16.76;43.24;101755.84;5012413;28;20483;-46
2022/04/21 07:30:08;;;;;;;7.20;6.60;;;;;;;16.85;42.28;101749.19;5012809;28;20842;-49
2022/04/21 07:32:36;;;;;;;8.67;7.97;;;;;;;16.20;44.25;101752.03;5011810;28;21440;-50
2022/04/21 07:35:06;;;;;;;8.20;7.50;;;;;;;16.10;44.75;101749.75;5013090;28;20428;-50
2022/04/21 07:37:37;;;;;;;8.07;7.37;;;;;;;16.07;45.57;101749.38;5012933;28;20842;-47
2022/04/21 07:40:06;;;;;;;8.60;7.80;;;;;;;15.76;46.27;101745.44;5012801;28;20444;-50
2022/04/21 07:42:35;;;;;;;8.20;7.60;;;;;;;15.75;46.01;101765.28;5011996;28;20527;-46
2022/04/21 07:45:05;;;;;;;8.93;8.43;;;;;;;15.66;45.57;101755.75;5010456;28;20523;-46
2022/04/21 07:47:33;;;;;;;8.77;7.97;;;;;;;15.24;46.10;101756.03;5008639;28;20452;-49
2022/04/21 07:50:01;;;;;;;8.90;8.10;;;;;;;14.91;47.64;101753.25;5012689;28;20934;-49
2022/04/21 07:55:17;;;;;;;9.00;8.40;;;;;;;14.87;47.68;101749.31;5012513;28;20433;-50
2022/04/21 07:57:47;;;;;;;8.70;8.10;;;;;;;14.85;47.33;101762.94;5012104;28;20813;-44
2022/04/21 08:00:16;;;;;;;9.97;8.30;;;;;;;14.94;47.30;101760.91;5012365;28;20444;-47
2022/04/21 08:02:45;;;;;;;9.33;8.20;;;;;;;14.81;47.32;101755.50;5012058;28;20540;-51
2022/04/21 08:05:14;;;;;;;8.53;7.73;;;;;;;15.00;46.86;101757.41;5012316;28;20455;-46
2022/04/21 08:07:42;;;;;;;8.87;8.00;;;;;;;14.93;47.86;101749.31;5012196;28;20511;-46
2022/04/21 08:10:18;;;;;;;8.30;7.70;;;;;;;15.23;47.57;101749.84;5012475;28;20433;-50
2022/04/21 08:12:49;;;;;;;11.23;8.40;;;;;;;15.35;46.92;101752.78;5011729;28;20474;-47
2022/04/21 08:15:23;;;;;;;9.47;8.77;;;;;;;15.71;46.74;101750.56;5012319;28;20437;-44
2022/04/21 08:17:52;;;;;;;9.93;9.23;;;;;;;15.72;46.83;101757.63;5012085;28;20447;-48
2022/04/21 08:20:19;;;;;;;9.50;8.70;;;;;;;15.78;46.20;101761.34;5011946;28;20433;-45
2022/04/21 08:22:48;;;;;;;9.87;9.20;;;;;;;15.50;47.10;101753.47;5011655;28;20465;-45
2022/04/21 08:34:12;;;;;;;8.20;7.50;;;;;;;14.94;48.86;101747.47;5012136;28;20845;-45
2022/04/21 08:36:40;;;;;;;8.30;7.53;;;;;;;14.72;48.98;101754.84;5011723;28;20467;-46
2022/04/21 08:39:08;;;;;;;9.97;9.07;;;;;;;14.66;49.72;101765.53;5011915;28;20437;-48
2022/04/21 08:41:42;;;;;;;9.30;8.70;;;;;;;14.64;48.88;101756.81;5011382;28;20479;-45
2022/04/21 08:44:11;;;;;;;9.13;8.53;;;;;;;14.84;49.43;101765.84;5011924;28;20958;-46
2022/04/21 08:46:41;;;;;;;8.80;8.20;;;;;;;14.66;49.31;101761.00;5005261;28;20461;-50
2022/04/21 08:49:10;;;;;;;8.77;7.97;;;;;;;14.61;50.58;101754.53;5011904;28;20421;-45
2022/04/21 08:51:37;;;;;;;10.63;9.77;;;;;;;14.61;49.22;101758.06;5011179;28;20469;-48
2022/04/21 08:54:06;;;;;;;10.00;9.20;;;;;;;14.66;48.73;101755.63;5011847;28;20429;-43
2022/04/21 08:56:34;;;;;;;9.97;9.17;;;;;;;14.61;49.42;101751.84;5011598;28;20471;-43
2022/04/21 08:59:02;;;;;;;8.80;8.20;;;;;;;14.38;48.68;101765.56;5014671;28;20468;-43
2022/04/21 09:01:31;;;;;;;10.40;9.70;;;;;;;14.38;50.28;101754.81;5015026;28;20832;-48
2022/04/21 09:03:58;;;;;;;10.10;9.30;;;;;;;14.46;51.22;101760.03;5015457;28;20926;-48
2022/04/21 09:06:27;;;;;;;9.60;8.90;;;;;;;14.49;49.63;101754.28;5015255;28;20459;-43
2022/04/21 09:09:13;;;;;;;9.93;8.87;;;;;;;14.53;50.06;101752.84;5015635;28;20433;-47
2022/04/21 09:11:43;;;;;;;9.10;8.50;;;;;;;14.73;50.17;101751.09;5014684;28;20988;-46
2022/04/21 09:14:16;;;;;;;9.67;8.83;;;;;;;14.80;49.19;101751.13;5015821;28;20451;-44
2022/04/21 09:16:45;;;;;;;9.20;8.50;;;;;;;14.96;48.74;101745.44;5015140;28;20463;-45
2022/04/21 09:19:13;;;;;;;10.00;9.20;;;;;;;14.89;49.82;101737.34;5015512;28;20859;-44
2022/04/21 09:21:42;;;;;;;8.97;8.03;;;;;;;15.05;48.79;101738.03;5014676;28;20461;-44
2022/04/21 09:24:20;;;;;;;9.53;8.93;;;;;;;15.18;47.73;101736.19;5015501;28;20428;-44
2022/04/21 09:26:47;;;;;;;9.17;8.50;;;;;;;14.99;48.08;101725.41;5015074;28;20465;-47
2022/04/21 09:29:24;;;;;;;9.30;8.40;;;;;;;15.10;48.62;101733.69;5015100;28;20429;-45
2022/04/21 09:31:58;;;;;;;9.27;8.50;;;;;;;15.21;49.23;101725.03;5014333;28;20479;-45
2022/04/21 09:34:34;;;;;;;10.03;9.20;;;;;;;15.08;49.16;101729.56;5015250;28;20441;-48
2022/04/21 09:37:05;;;;;;;9.60;8.90;;;;;;;15.05;49.57;101740.72;5014940;28;20491;-46
2022/04/21 09:39:33;;;;;;;8.40;7.80;;;;;;;14.93;48.47;101730.53;5014904;28;20938;-44
2022/04/21 09:42:00;;;;;;;8.23;7.63;;;;;;;14.38;48.32;101723.47;5014247;28;20464;-43
2022/04/21 09:47:20;;;;;;;6.93;6.43;;;;;;;15.01;47.60;101716.09;5002882;28;20461;-45
2022/04/21 09:49:48;;;;;;;5.93;5.63;;;;;;;14.98;45.43;101721.03;5014741;28;20439;-48
2022/04/21 09:52:26;;;;;;;7.30;6.80;;;;;;;15.11;45.65;101721.09;5013737;28;21008;-45
2022/04/21 09:54:54;;;;;;;6.30;5.90;;;;;;;15.18;46.03;101714.69;5014887;28;20430;-43
2022/04/21 09:57:29;;;;;;;7.70;7.00;;;;;;;15.36;45.95;101714.09;5014605;28;20667;-50
2022/04/21 09:59:58;;;;;;;6.40;6.10;;;;;;;15.27;45.77;101718.84;5014854;28;20437;-44
2022/04/21 10:02:29;;;;;;;8.83;8.13;;;;;;;15.29;45.61;101710.59;5013857;28;20489;-43
2022/04/21 10:04:59;;;;;;;7.90;7.20;;;;;;;15.23;46.01;101727.53;5014492;28;20515;-44
2022/04/21 10:07:27;;;;;;;8.30;7.60;;;;;;;15.51;45.48;101725.53;5014378;28;20974;-45
2022/04/21 10:09:55;;;;;;;7.57;7.10;;;;;;;15.40;45.62;101718.88;5014192;28;20460;-45
2022/04/21 10:12:23;;;;;;;8.57;7.83;;;;;;;15.30;45.50;101717.59;5013805;28;20479;-43
2022/04/21 10:14:51;;;;;;;8.10;7.47;;;;;;;15.37;45.37;101711.22;5014274;28;20448;-49
2022/04/21 10:17:19;;;;;;;7.70;7.23;;;;;;;15.38;46.18;101714.75;5013992;28;20515;-45
2022/04/21 10:19:51;;;;;;;9.43;8.60;;;;;;;15.23;46.34;101716.78;5014472;28;20433;-51
2022/04/21 10:22:26;;;;;;;8.10;7.40;;;;;;;15.25;46.15;101714.72;5013602;28;20826;-47
2022/04/21 10:24:56;;;;;;;7.70;7.23;;;;;;;15.26;46.07;101711.81;5014593;28;20443;-50
2022/04/21 10:27:38;;;;;;;7.07;6.57;;;;;;;15.49;45.78;101703.41;5013881;28;20453;-45
2022/04/21 10:30:19;;;;;;;10.37;7.20;;;;;;;15.78;45.00;101703.00;5014141;28;20516;-48
2022/04/21 10:32:48;;;;;;;6.73;6.13;;;;;;;15.55;44.33;101716.03;5013527;28;20477;-49
2022/04/21 10:35:47;;;;;;;6.40;6.00;;;;;;;15.62;43.94;101703.41;5013896;28;20439;-46
2022/04/21 10:38:19;;;;;;;6.87;6.30;;;;;;;15.65;43.77;101721.00;5013837;28;20460;-48
2022/04/21 10:41:06;;;;;;;6.00;5.70;;;;;;;15.78;42.34;101703.00;5013737;28;20433;-48
2022/04/21 10:44:03;;;;;;;5.80;5.40;;;;;;;15.91;41.20;101694.09;5013872;28;20437;-48
2022/04/21 10:46:31;;;;;;;4.50;4.30;;;;;;;15.98;39.90;101695.75;5007059;28;20465;-47
2022/04/21 10:49:00;;;;;;;5.17;4.87;;;;;;;15.88;40.89;101695.34;5013616;28;20812;-46
2022/04/21 10:58:47;;;;;;;5.90;5.47;;;;;;;15.79;40.09;101701.16;5013479;28;20962;-45
2022/04/21 11:01:17;;;;;;;4.70;4.50;;;;;;;15.90;40.39;101687.91;5013133;28;20463;-46
2022/04/21 11:03:46;;;;;;;4.23;4.03;;;;;;;15.83;38.97;101684.38;5013283;28;20433;-50
2022/04/21 11:06:15;;;;;;;4.93;4.33;;;;;;;15.74;39.94;101685.63;5013191;28;20974;-50
2022/04/21 11:08:44;;;;;;;4.60;4.40;;;;;;;15.83;40.78;101687.06;5013365;28;20826;-46
2022/04/21 11:11:13;;;;;;;3.93;3.83;;;;;;;15.66;38.21;101677.78;5012489;28;20437;-46
2022/04/21 11:13:43;;;;;;;4.57;4.37;;;;;;;15.75;39.49;101684.59;5013067;28;20480;-45
2022/04/21 11:16:11;;;;;;;4.37;4.17;;;;;;;15.74;38.82;101682.94;5013367;28;20468;-47
2022/04/21 11:18:39;;;;;;;5.13;4.83;;;;;;;15.90;39.68;101682.53;5013182;28;20440;-47
2022/04/21 11:21:26;;;;;;;4.60;4.40;;;;;;;15.86;40.14;101685.84;5011758;28;20464;-44
2022/04/21 11:24:02;;;;;;;5.10;4.80;;;;;;;15.79;39.85;101687.72;5012957;28;20429;-46
2022/04/21 11:26:30;;;;;;;5.30;5.00;;;;;;;15.95;40.63;101693.47;5013234;28;20456;-48
2022/04/21 11:29:05;;;;;;;5.87;5.37;;;;;;;15.96;40.05;101686.22;5013058;28;20433;-50
2022/04/21 11:31:33;;;;;;;5.07;4.87;;;;;;;16.23;40.07;101700.47;5012285;28;20472;-50
2022/04/21 11:34:02;;;;;;;4.50;4.30;;;;;;;16.20;39.34;101698.19;5012704;28;20477;-48
2022/04/21 11:36:37;;;;;;;5.17;4.80;;;;;;;16.26;39.55;101705.44;5012623;28;20516;-49
2022/04/21 11:39:09;;;;;;;4.63;4.43;;;;;;;16.31;39.82;101695.69;5012698;28;20938;-50
2022/04/21 11:41:43;;;;;;;4.40;4.10;;;;;;;16.12;39.84;101685.81;5012317;28;20915;-49
2022/04/21 11:44:11;;;;;;;4.37;4.17;;;;;;;16.17;39.61;101693.22;5012799;28;20425;-47
2022/04/21 11:46:39;;;;;;;5.00;4.70;;;;;;;16.31;40.29;101692.16;5006043;28;20480;-47
2022/04/21 11:49:09;;;;;;;5.60;5.13;;;;;;;16.05;41.01;101696.56;5012384;28;20520;-49
2022/04/21 11:51:36;;;;;;;5.00;4.80;;;;;;;15.90;40.78;101697.81;5012076;28;20476;-44
2022/04/21 11:54:05;;;;;;;5.33;4.97;;;;;;;15.94;41.35;101694.53;5012680;28;20473;-45
2022/04/21 11:56:34;;;;;;;4.33;4.13;;;;;;;16.07;40.56;101692.84;5012445;28;20475;-45
2022/04/21 11:59:07;;;;;;;4.73;4.40;;;;;;;16.12;40.63;101693.03;5012446;28;20439;-45
2022/04/21 12:07:08;;;;;;;6.47;5.80;;;;;;;16.17;41.12;101693.22;5012411;28;20471;-45
2022/04/21 12:09:41;;;;;;;5.43;5.13;;;;;;;16.24;42.34;101700.28;5012261;28;20776;-46
2022/04/21 12:12:11;;;;;;;5.57;5.27;;;;;;;16.20;42.40;101703.59;5011783;28;20579;-47
2022/04/21 12:14:41;;;;;;;5.03;4.83;;;;;;;16.04;42.76;101702.16;5012176;28;20959;-47
2022/04/21 12:17:11;;;;;;;5.90;5.50;;;;;;;15.93;42.81;101702.78;5012083;28;20461;-45
2022/04/21 12:19:42;;;;;;;6.03;4.50;;;;;;;15.90;41.37;101701.34;5012228;28;20441;-43
2022/04/21 12:22:13;;;;;;;7.47;5.17;;;;;;;16.12;40.91;101685.81;5011451;28;20918;-46
2022/04/21 12:24:42;;;;;;;5.63;4.30;;;;;;;16.18;40.55;101684.13;5012173;28;20938;-43
2022/04/21 12:27:16;;;;;;;4.63;4.23;;;;;;;16.23;40.68;101698.59;5012305;28;20457;-46